Terminal Aerodrome Forecast
Issued by NWS

Home | Current Version | Previous Version | Text Only | Print | Product List | Glossary On
Versions: 1 2 3 4 5 6 7 8 9 10 11 12 13 14
000
FTUS46 KEKA 022321
TAFCEC
TAF
KCEC 022321Z 0300/0324 34018G28KT P6SM FEW030 FEW250
     FM030500 01007KT P6SM SCT200
     FM031800 33014G21KT P6SM BKN150=

USA.gov is the U.S. government's official web portal to all federal, state and local government web resources and services.